sensor_id;sensor_type;location;lat;lon;timestamp;P1;durP1;ratioP1;P2;durP2;ratioP2
42724;SDS011;28369;44.046;23.014;2023-07-13T00:00:19;11.82;;;6.72;;
42724;SDS011;28369;44.046;23.014;2023-07-13T00:02:44;9.23;;;6.68;;
42724;SDS011;28369;44.046;23.014;2023-07-13T00:05:10;11.80;;;6.55;;
42724;SDS011;28369;44.046;23.014;2023-07-13T00:07:36;11.90;;;6.78;;
42724;SDS011;28369;44.046;23.014;2023-07-13T00:10:02;7.15;;;6.25;;
42724;SDS011;28369;44.046;23.014;2023-07-13T00:12:35;14.18;;;7.05;;
42724;SDS011;28369;44.046;23.014;2023-07-13T00:15:10;10.75;;;6.35;;
42724;SDS011;28369;44.046;23.014;2023-07-13T00:17:38;13.57;;;6.95;;
42724;SDS011;28369;44.046;23.014;2023-07-13T00:20:04;9.95;;;6.90;;
42724;SDS011;28369;44.046;23.014;2023-07-13T00:22:31;10.43;;;6.97;;
42724;SDS011;28369;44.046;23.014;2023-07-13T00:24:57;11.05;;;6.78;;
42724;SDS011;28369;44.046;23.014;2023-07-13T00:27:22;9.32;;;6.38;;
42724;SDS011;28369;44.046;23.014;2023-07-13T00:29:49;9.90;;;6.68;;
42724;SDS011;28369;44.046;23.014;2023-07-13T00:32:14;10.30;;;6.60;;
42724;SDS011;28369;44.046;23.014;2023-07-13T00:34:40;8.93;;;6.30;;
42724;SDS011;28369;44.046;23.014;2023-07-13T00:37:06;11.32;;;7.70;;
42724;SDS011;28369;44.046;23.014;2023-07-13T00:39:33;14.52;;;7.25;;
42724;SDS011;28369;44.046;23.014;2023-07-13T00:41:59;11.90;;;7.93;;
42724;SDS011;28369;44.046;23.014;2023-07-13T00:44:25;12.52;;;7.18;;
42724;SDS011;28369;44.046;23.014;2023-07-13T00:46:51;9.57;;;6.60;;
42724;SDS011;28369;44.046;23.014;2023-07-13T00:49:18;14.07;;;7.22;;
42724;SDS011;28369;44.046;23.014;2023-07-13T00:51:48;10.75;;;7.60;;
42724;SDS011;28369;44.046;23.014;2023-07-13T00:54:15;9.23;;;7.43;;
42724;SDS011;28369;44.046;23.014;2023-07-13T00:56:48;14.95;;;8.60;;
42724;SDS011;28369;44.046;23.014;2023-07-13T00:59:16;17.35;;;9.23;;
42724;SDS011;28369;44.046;23.014;2023-07-13T01:01:44;17.95;;;8.90;;
42724;SDS011;28369;44.046;23.014;2023-07-13T01:04:11;13.68;;;9.05;;
42724;SDS011;28369;44.046;23.014;2023-07-13T01:06:37;10.55;;;8.52;;
42724;SDS011;28369;44.046;23.014;2023-07-13T01:09:03;13.95;;;9.02;;
42724;SDS011;28369;44.046;23.014;2023-07-13T01:11:30;14.85;;;9.32;;
42724;SDS011;28369;44.046;23.014;2023-07-13T01:13:56;9.18;;;8.27;;
42724;SDS011;28369;44.046;23.014;2023-07-13T01:16:24;14.90;;;9.00;;
42724;SDS011;28369;44.046;23.014;2023-07-13T01:21:17;9.90;;;8.88;;
42724;SDS011;28369;44.046;23.014;2023-07-13T01:23:44;13.80;;;8.73;;
42724;SDS011;28369;44.046;23.014;2023-07-13T01:26:09;13.45;;;9.82;;
42724;SDS011;28369;44.046;23.014;2023-07-13T01:28:36;11.82;;;9.20;;
42724;SDS011;28369;44.046;23.014;2023-07-13T01:31:03;12.55;;;10.07;;
42724;SDS011;28369;44.046;23.014;2023-07-13T01:33:29;15.38;;;9.15;;
42724;SDS011;28369;44.046;23.014;2023-07-13T01:35:55;14.13;;;8.73;;
42724;SDS011;28369;44.046;23.014;2023-07-13T01:38:23;14.82;;;9.00;;
42724;SDS011;28369;44.046;23.014;2023-07-13T01:40:52;12.70;;;9.55;;
42724;SDS011;28369;44.046;23.014;2023-07-13T01:43:18;21.80;;;9.68;;
42724;SDS011;28369;44.046;23.014;2023-07-13T01:45:44;14.38;;;9.05;;
42724;SDS011;28369;44.046;23.014;2023-07-13T01:48:10;13.23;;;8.65;;
42724;SDS011;28369;44.046;23.014;2023-07-13T01:50:36;17.48;;;9.75;;
42724;SDS011;28369;44.046;23.014;2023-07-13T01:53:02;14.65;;;9.13;;
42724;SDS011;28369;44.046;23.014;2023-07-13T01:55:28;14.98;;;9.00;;
42724;SDS011;28369;44.046;23.014;2023-07-13T01:57:54;16.60;;;9.95;;
42724;SDS011;28369;44.046;23.014;2023-07-13T02:00:20;16.63;;;9.82;;
42724;SDS011;28369;44.046;23.014;2023-07-13T02:02:46;20.15;;;9.90;;
42724;SDS011;28369;44.046;23.014;2023-07-13T02:05:11;15.52;;;10.13;;
42724;SDS011;28369;44.046;23.014;2023-07-13T02:07:38;18.08;;;10.27;;
42724;SDS011;28369;44.046;23.014;2023-07-13T02:10:05;15.18;;;10.20;;
42724;SDS011;28369;44.046;23.014;2023-07-13T02:12:31;14.00;;;9.82;;
42724;SDS011;28369;44.046;23.014;2023-07-13T02:14:57;16.58;;;10.02;;
42724;SDS011;28369;44.046;23.014;2023-07-13T02:17:22;19.55;;;9.45;;
42724;SDS011;28369;44.046;23.014;2023-07-13T02:19:48;12.43;;;9.60;;
42724;SDS011;28369;44.046;23.014;2023-07-13T02:22:13;14.85;;;8.98;;
42724;SDS011;28369;44.046;23.014;2023-07-13T02:24:39;13.63;;;9.65;;
42724;SDS011;28369;44.046;23.014;2023-07-13T02:27:04;13.55;;;9.70;;
42724;SDS011;28369;44.046;23.014;2023-07-13T02:29:30;18.02;;;9.70;;
42724;SDS011;28369;44.046;23.014;2023-07-13T02:31:56;13.40;;;9.65;;
42724;SDS011;28369;44.046;23.014;2023-07-13T02:34:21;13.63;;;9.20;;
42724;SDS011;28369;44.046;23.014;2023-07-13T02:36:47;13.98;;;9.38;;
42724;SDS011;28369;44.046;23.014;2023-07-13T02:39:13;16.58;;;9.40;;
42724;SDS011;28369;44.046;23.014;2023-07-13T02:41:38;13.10;;;9.43;;
42724;SDS011;28369;44.046;23.014;2023-07-13T02:44:04;15.85;;;10.10;;
42724;SDS011;28369;44.046;23.014;2023-07-13T02:46:30;12.90;;;9.88;;
42724;SDS011;28369;44.046;23.014;2023-07-13T02:48:56;14.32;;;10.27;;
42724;SDS011;28369;44.046;23.014;2023-07-13T02:51:21;14.93;;;10.50;;
42724;SDS011;28369;44.046;23.014;2023-07-13T02:53:46;21.83;;;12.10;;
42724;SDS011;28369;44.046;23.014;2023-07-13T02:56:12;17.33;;;13.35;;
42724;SDS011;28369;44.046;23.014;2023-07-13T02:58:37;17.90;;;13.38;;
42724;SDS011;28369;44.046;23.014;2023-07-13T03:01:07;17.88;;;12.07;;
42724;SDS011;28369;44.046;23.014;2023-07-13T03:03:34;18.50;;;12.50;;
42724;SDS011;28369;44.046;23.014;2023-07-13T03:06:00;15.77;;;11.43;;
42724;SDS011;28369;44.046;23.014;2023-07-13T03:08:28;17.13;;;11.25;;
42724;SDS011;28369;44.046;23.014;2023-07-13T03:11:04;29.85;;;13.02;;
42724;SDS011;28369;44.046;23.014;2023-07-13T03:13:36;17.02;;;13.30;;
42724;SDS011;28369;44.046;23.014;2023-07-13T03:16:02;16.52;;;12.07;;
42724;SDS011;28369;44.046;23.014;2023-07-13T03:18:27;22.38;;;12.82;;
42724;SDS011;28369;44.046;23.014;2023-07-13T03:20:53;16.83;;;11.85;;
42724;SDS011;28369;44.046;23.014;2023-07-13T03:23:19;17.40;;;11.93;;
42724;SDS011;28369;44.046;23.014;2023-07-13T03:25:46;16.55;;;12.15;;
42724;SDS011;28369;44.046;23.014;2023-07-13T03:28:12;17.73;;;11.15;;
42724;SDS011;28369;44.046;23.014;2023-07-13T03:30:38;18.13;;;10.95;;
42724;SDS011;28369;44.046;23.014;2023-07-13T03:33:04;17.33;;;11.30;;
42724;SDS011;28369;44.046;23.014;2023-07-13T03:35:30;15.32;;;10.75;;
42724;SDS011;28369;44.046;23.014;2023-07-13T03:37:57;22.85;;;11.85;;
42724;SDS011;28369;44.046;23.014;2023-07-13T03:40:24;19.45;;;11.27;;
42724;SDS011;28369;44.046;23.014;2023-07-13T03:42:51;14.60;;;10.98;;
42724;SDS011;28369;44.046;23.014;2023-07-13T03:45:16;19.65;;;11.57;;
42724;SDS011;28369;44.046;23.014;2023-07-13T03:47:42;21.80;;;12.55;;
42724;SDS011;28369;44.046;23.014;2023-07-13T03:50:08;14.10;;;10.18;;
42724;SDS011;28369;44.046;23.014;2023-07-13T03:52:33;10.90;;;8.93;;
42724;SDS011;28369;44.046;23.014;2023-07-13T03:54:59;15.20;;;10.15;;
42724;SDS011;28369;44.046;23.014;2023-07-13T03:57:24;14.70;;;9.80;;
42724;SDS011;28369;44.046;23.014;2023-07-13T03:59:49;14.98;;;9.90;;
42724;SDS011;28369;44.046;23.014;2023-07-13T04:02:15;15.57;;;9.55;;
42724;SDS011;28369;44.046;23.014;2023-07-13T04:04:40;13.98;;;9.50;;
42724;SDS011;28369;44.046;23.014;2023-07-13T04:07:06;26.30;;;10.65;;
42724;SDS011;28369;44.046;23.014;2023-07-13T04:09:33;21.58;;;10.07;;
42724;SDS011;28369;44.046;23.014;2023-07-13T04:11:59;16.73;;;10.60;;
42724;SDS011;28369;44.046;23.014;2023-07-13T04:14:24;19.52;;;11.35;;
42724;SDS011;28369;44.046;23.014;2023-07-13T04:16:50;14.82;;;10.30;;
42724;SDS011;28369;44.046;23.014;2023-07-13T04:19:15;18.88;;;10.80;;
42724;SDS011;28369;44.046;23.014;2023-07-13T04:21:40;18.13;;;10.25;;
42724;SDS011;28369;44.046;23.014;2023-07-13T04:24:06;18.23;;;10.70;;
42724;SDS011;28369;44.046;23.014;2023-07-13T04:26:32;17.77;;;10.85;;
42724;SDS011;28369;44.046;23.014;2023-07-13T04:29:00;14.00;;;10.82;;
42724;SDS011;28369;44.046;23.014;2023-07-13T04:31:28;18.77;;;11.70;;
42724;SDS011;28369;44.046;23.014;2023-07-13T04:33:54;16.73;;;10.85;;
42724;SDS011;28369;44.046;23.014;2023-07-13T04:36:19;13.15;;;10.77;;
42724;SDS011;28369;44.046;23.014;2023-07-13T04:38:45;15.38;;;11.70;;
42724;SDS011;28369;44.046;23.014;2023-07-13T04:41:10;18.95;;;11.60;;
42724;SDS011;28369;44.046;23.014;2023-07-13T04:43:37;20.10;;;11.77;;
42724;SDS011;28369;44.046;23.014;2023-07-13T04:46:04;16.08;;;10.93;;
42724;SDS011;28369;44.046;23.014;2023-07-13T04:48:34;17.63;;;12.02;;
42724;SDS011;28369;44.046;23.014;2023-07-13T04:51:00;16.52;;;10.75;;
42724;SDS011;28369;44.046;23.014;2023-07-13T04:53:26;16.30;;;10.95;;
42724;SDS011;28369;44.046;23.014;2023-07-13T04:55:53;16.40;;;10.98;;
42724;SDS011;28369;44.046;23.014;2023-07-13T04:58:18;15.90;;;10.93;;
42724;SDS011;28369;44.046;23.014;2023-07-13T05:00:44;16.00;;;10.63;;
42724;SDS011;28369;44.046;23.014;2023-07-13T05:03:09;14.82;;;10.07;;
42724;SDS011;28369;44.046;23.014;2023-07-13T05:05:34;18.40;;;10.18;;
42724;SDS011;28369;44.046;23.014;2023-07-13T05:08:00;13.15;;;10.30;;
42724;SDS011;28369;44.046;23.014;2023-07-13T05:10:25;12.77;;;10.27;;
42724;SDS011;28369;44.046;23.014;2023-07-13T05:12:51;16.05;;;9.40;;
42724;SDS011;28369;44.046;23.014;2023-07-13T05:15:17;14.30;;;10.25;;
42724;SDS011;28369;44.046;23.014;2023-07-13T05:17:46;17.70;;;10.27;;
42724;SDS011;28369;44.046;23.014;2023-07-13T05:20:12;13.20;;;10.68;;
42724;SDS011;28369;44.046;23.014;2023-07-13T05:22:37;13.63;;;10.10;;
42724;SDS011;28369;44.046;23.014;2023-07-13T05:25:06;17.65;;;11.27;;
42724;SDS011;28369;44.046;23.014;2023-07-13T05:27:32;20.45;;;10.25;;
42724;SDS011;28369;44.046;23.014;2023-07-13T05:29:59;19.95;;;11.25;;
42724;SDS011;28369;44.046;23.014;2023-07-13T05:32:25;19.95;;;10.57;;
42724;SDS011;28369;44.046;23.014;2023-07-13T05:34:50;14.43;;;10.10;;
42724;SDS011;28369;44.046;23.014;2023-07-13T05:37:15;17.48;;;10.95;;
42724;SDS011;28369;44.046;23.014;2023-07-13T05:39:41;13.35;;;10.05;;
42724;SDS011;28369;44.046;23.014;2023-07-13T05:42:06;14.85;;;10.68;;
42724;SDS011;28369;44.046;23.014;2023-07-13T05:44:32;18.88;;;10.20;;
42724;SDS011;28369;44.046;23.014;2023-07-13T05:46:57;17.40;;;9.80;;
42724;SDS011;28369;44.046;23.014;2023-07-13T05:49:23;16.88;;;10.15;;
42724;SDS011;28369;44.046;23.014;2023-07-13T05:51:49;19.42;;;10.27;;
42724;SDS011;28369;44.046;23.014;2023-07-13T05:54:14;15.35;;;10.60;;
42724;SDS011;28369;44.046;23.014;2023-07-13T05:56:40;13.32;;;9.95;;
42724;SDS011;28369;44.046;23.014;2023-07-13T05:59:05;13.23;;;9.10;;
42724;SDS011;28369;44.046;23.014;2023-07-13T06:01:31;11.40;;;9.20;;
42724;SDS011;28369;44.046;23.014;2023-07-13T06:03:56;19.17;;;9.40;;
42724;SDS011;28369;44.046;23.014;2023-07-13T06:06:22;13.27;;;9.15;;
42724;SDS011;28369;44.046;23.014;2023-07-13T06:08:48;13.90;;;8.80;;
42724;SDS011;28369;44.046;23.014;2023-07-13T06:11:15;17.30;;;10.20;;
42724;SDS011;28369;44.046;23.014;2023-07-13T06:13:43;10.55;;;9.25;;
42724;SDS011;28369;44.046;23.014;2023-07-13T06:16:09;14.27;;;8.77;;
42724;SDS011;28369;44.046;23.014;2023-07-13T06:18:35;11.95;;;9.57;;
42724;SDS011;28369;44.046;23.014;2023-07-13T06:21:18;15.73;;;9.75;;
42724;SDS011;28369;44.046;23.014;2023-07-13T06:23:46;12.98;;;10.02;;
42724;SDS011;28369;44.046;23.014;2023-07-13T06:26:16;14.77;;;8.38;;
42724;SDS011;28369;44.046;23.014;2023-07-13T06:28:43;14.82;;;9.75;;
42724;SDS011;28369;44.046;23.014;2023-07-13T06:31:10;16.60;;;9.88;;
42724;SDS011;28369;44.046;23.014;2023-07-13T06:33:36;12.32;;;8.85;;
42724;SDS011;28369;44.046;23.014;2023-07-13T06:36:03;15.82;;;9.05;;
42724;SDS011;28369;44.046;23.014;2023-07-13T06:38:29;17.10;;;9.40;;
42724;SDS011;28369;44.046;23.014;2023-07-13T06:40:55;12.88;;;8.85;;
42724;SDS011;28369;44.046;23.014;2023-07-13T06:43:21;11.40;;;8.68;;
42724;SDS011;28369;44.046;23.014;2023-07-13T06:45:47;12.75;;;9.13;;
42724;SDS011;28369;44.046;23.014;2023-07-13T06:48:15;14.60;;;10.50;;
42724;SDS011;28369;44.046;23.014;2023-07-13T06:50:42;22.92;;;15.88;;
42724;SDS011;28369;44.046;23.014;2023-07-13T06:53:09;16.10;;;10.77;;
42724;SDS011;28369;44.046;23.014;2023-07-13T06:55:35;13.60;;;8.18;;
42724;SDS011;28369;44.046;23.014;2023-07-13T06:58:00;19.27;;;13.32;;
42724;SDS011;28369;44.046;23.014;2023-07-13T07:00:26;21.85;;;15.18;;
42724;SDS011;28369;44.046;23.014;2023-07-13T07:02:51;21.48;;;12.30;;
42724;SDS011;28369;44.046;23.014;2023-07-13T07:05:17;17.67;;;9.15;;
42724;SDS011;28369;44.046;23.014;2023-07-13T07:07:42;17.85;;;11.50;;
42724;SDS011;28369;44.046;23.014;2023-07-13T07:10:08;12.50;;;8.52;;
42724;SDS011;28369;44.046;23.014;2023-07-13T07:12:36;14.82;;;8.80;;
42724;SDS011;28369;44.046;23.014;2023-07-13T07:15:01;15.50;;;7.45;;
42724;SDS011;28369;44.046;23.014;2023-07-13T07:17:27;14.52;;;7.50;;
42724;SDS011;28369;44.046;23.014;2023-07-13T07:19:52;11.75;;;7.90;;
42724;SDS011;28369;44.046;23.014;2023-07-13T07:22:19;13.35;;;7.63;;
42724;SDS011;28369;44.046;23.014;2023-07-13T07:24:45;12.43;;;7.47;;
42724;SDS011;28369;44.046;23.014;2023-07-13T07:27:11;17.92;;;8.63;;
42724;SDS011;28369;44.046;23.014;2023-07-13T07:29:36;9.98;;;7.68;;
42724;SDS011;28369;44.046;23.014;2023-07-13T07:32:02;12.43;;;7.95;;
42724;SDS011;28369;44.046;23.014;2023-07-13T07:34:27;15.70;;;7.53;;
42724;SDS011;28369;44.046;23.014;2023-07-13T07:36:53;12.82;;;7.35;;
42724;SDS011;28369;44.046;23.014;2023-07-13T07:39:19;11.45;;;7.50;;
42724;SDS011;28369;44.046;23.014;2023-07-13T07:41:44;13.23;;;7.72;;
42724;SDS011;28369;44.046;23.014;2023-07-13T07:44:10;13.68;;;7.40;;
42724;SDS011;28369;44.046;23.014;2023-07-13T07:46:35;14.60;;;7.03;;
42724;SDS011;28369;44.046;23.014;2023-07-13T07:49:01;9.82;;;6.38;;
42724;SDS011;28369;44.046;23.014;2023-07-13T07:51:26;7.43;;;6.03;;
42724;SDS011;28369;44.046;23.014;2023-07-13T07:53:51;10.75;;;7.15;;
42724;SDS011;28369;44.046;23.014;2023-07-13T07:56:17;9.93;;;6.50;;
42724;SDS011;28369;44.046;23.014;2023-07-13T07:58:43;17.23;;;7.18;;
42724;SDS011;28369;44.046;23.014;2023-07-13T08:01:09;15.35;;;6.45;;
42724;SDS011;28369;44.046;23.014;2023-07-13T08:03:35;13.15;;;6.95;;
42724;SDS011;28369;44.046;23.014;2023-07-13T08:06:00;9.85;;;6.47;;
42724;SDS011;28369;44.046;23.014;2023-07-13T08:08:26;13.27;;;6.47;;
42724;SDS011;28369;44.046;23.014;2023-07-13T08:10:51;12.65;;;7.00;;
42724;SDS011;28369;44.046;23.014;2023-07-13T08:13:18;12.27;;;7.30;;
42724;SDS011;28369;44.046;23.014;2023-07-13T08:15:43;14.57;;;6.97;;
42724;SDS011;28369;44.046;23.014;2023-07-13T08:18:08;10.73;;;6.40;;
42724;SDS011;28369;44.046;23.014;2023-07-13T08:20:43;9.63;;;6.38;;
42724;SDS011;28369;44.046;23.014;2023-07-13T08:23:10;8.35;;;6.20;;
42724;SDS011;28369;44.046;23.014;2023-07-13T08:25:35;12.68;;;6.82;;
42724;SDS011;28369;44.046;23.014;2023-07-13T08:28:02;13.95;;;6.20;;
42724;SDS011;28369;44.046;23.014;2023-07-13T08:30:28;9.98;;;6.53;;
42724;SDS011;28369;44.046;23.014;2023-07-13T08:32:54;13.50;;;6.80;;
42724;SDS011;28369;44.046;23.014;2023-07-13T08:35:19;14.45;;;6.85;;
42724;SDS011;28369;44.046;23.014;2023-07-13T08:37:45;12.32;;;6.15;;
42724;SDS011;28369;44.046;23.014;2023-07-13T08:40:11;13.80;;;6.13;;
42724;SDS011;28369;44.046;23.014;2023-07-13T08:42:46;12.27;;;5.47;;
42724;SDS011;28369;44.046;23.014;2023-07-13T08:53:36;9.68;;;4.85;;
42724;SDS011;28369;44.046;23.014;2023-07-13T08:56:05;19.63;;;6.60;;
42724;SDS011;28369;44.046;23.014;2023-07-13T08:58:36;8.50;;;5.95;;
42724;SDS011;28369;44.046;23.014;2023-07-13T09:06:16;12.18;;;5.63;;
42724;SDS011;28369;44.046;23.014;2023-07-13T09:16:27;11.63;;;5.57;;
42724;SDS011;28369;44.046;23.014;2023-07-13T09:18:54;14.75;;;5.10;;
42724;SDS011;28369;44.046;23.014;2023-07-13T09:21:27;11.30;;;5.10;;
42724;SDS011;28369;44.046;23.014;2023-07-13T09:23:59;9.90;;;4.30;;
42724;SDS011;28369;44.046;23.014;2023-07-13T09:26:26;12.77;;;4.70;;
42724;SDS011;28369;44.046;23.014;2023-07-13T09:28:59;7.10;;;3.95;;
42724;SDS011;28369;44.046;23.014;2023-07-13T09:31:53;14.30;;;4.00;;
42724;SDS011;28369;44.046;23.014;2023-07-13T09:34:23;13.07;;;4.13;;
42724;SDS011;28369;44.046;23.014;2023-07-13T09:36:49;10.85;;;3.72;;
42724;SDS011;28369;44.046;23.014;2023-07-13T09:39:15;8.63;;;4.43;;
42724;SDS011;28369;44.046;23.014;2023-07-13T09:42:01;6.55;;;3.90;;
42724;SDS011;28369;44.046;23.014;2023-07-13T09:44:52;7.28;;;3.85;;
42724;SDS011;28369;44.046;23.014;2023-07-13T09:47:31;8.10;;;3.80;;
42724;SDS011;28369;44.046;23.014;2023-07-13T09:50:04;13.57;;;4.32;;
42724;SDS011;28369;44.046;23.014;2023-07-13T09:52:39;7.90;;;3.67;;
42724;SDS011;28369;44.046;23.014;2023-07-13T09:55:22;11.18;;;3.60;;
42724;SDS011;28369;44.046;23.014;2023-07-13T09:57:48;14.05;;;4.13;;
42724;SDS011;28369;44.046;23.014;2023-07-13T10:00:20;9.45;;;3.58;;
42724;SDS011;28369;44.046;23.014;2023-07-13T10:03:01;11.00;;;4.38;;
42724;SDS011;28369;44.046;23.014;2023-07-13T10:05:28;6.80;;;3.40;;
42724;SDS011;28369;44.046;23.014;2023-07-13T10:08:03;12.45;;;4.05;;
42724;SDS011;28369;44.046;23.014;2023-07-13T10:10:28;10.82;;;3.78;;
42724;SDS011;28369;44.046;23.014;2023-07-13T10:12:55;7.75;;;3.90;;
42724;SDS011;28369;44.046;23.014;2023-07-13T10:15:24;9.70;;;3.90;;
42724;SDS011;28369;44.046;23.014;2023-07-13T10:17:51;7.90;;;3.72;;
42724;SDS011;28369;44.046;23.014;2023-07-13T10:20:18;6.90;;;3.80;;
42724;SDS011;28369;44.046;23.014;2023-07-13T10:22:54;10.20;;;3.60;;
42724;SDS011;28369;44.046;23.014;2023-07-13T10:25:25;7.18;;;3.20;;
42724;SDS011;28369;44.046;23.014;2023-07-13T10:27:54;12.38;;;4.05;;
42724;SDS011;28369;44.046;23.014;2023-07-13T10:30:28;6.40;;;3.15;;
42724;SDS011;28369;44.046;23.014;2023-07-13T10:33:03;11.23;;;3.80;;
42724;SDS011;28369;44.046;23.014;2023-07-13T10:35:36;10.30;;;3.47;;
42724;SDS011;28369;44.046;23.014;2023-07-13T10:38:14;9.50;;;3.35;;
42724;SDS011;28369;44.046;23.014;2023-07-13T10:40:55;11.57;;;3.40;;
42724;SDS011;28369;44.046;23.014;2023-07-13T10:43:41;10.43;;;3.90;;
42724;SDS011;28369;44.046;23.014;2023-07-13T10:46:10;8.63;;;3.80;;
42724;SDS011;28369;44.046;23.014;2023-07-13T10:51:05;5.03;;;3.60;;
42724;SDS011;28369;44.046;23.014;2023-07-13T10:53:33;9.38;;;3.38;;
42724;SDS011;28369;44.046;23.014;2023-07-13T10:56:05;6.80;;;3.40;;
42724;SDS011;28369;44.046;23.014;2023-07-13T10:58:50;6.65;;;3.33;;
42724;SDS011;28369;44.046;23.014;2023-07-13T11:01:39;9.90;;;3.72;;
42724;SDS011;28369;44.046;23.014;2023-07-13T11:04:08;11.02;;;3.63;;
42724;SDS011;28369;44.046;23.014;2023-07-13T11:06:38;10.32;;;3.38;;
42724;SDS011;28369;44.046;23.014;2023-07-13T11:09:31;5.72;;;3.13;;
42724;SDS011;28369;44.046;23.014;2023-07-13T11:12:00;8.75;;;3.50;;
42724;SDS011;28369;44.046;23.014;2023-07-13T11:17:23;6.90;;;3.40;;
42724;SDS011;28369;44.046;23.014;2023-07-13T11:19:50;8.93;;;3.10;;
42724;SDS011;28369;44.046;23.014;2023-07-13T11:22:21;10.63;;;3.08;;
42724;SDS011;28369;44.046;23.014;2023-07-13T11:28:05;13.15;;;3.72;;
42724;SDS011;28369;44.046;23.014;2023-07-13T11:30:21;8.70;;;3.33;;
42724;SDS011;28369;44.046;23.014;2023-07-13T11:35:37;6.25;;;3.05;;
42724;SDS011;28369;44.046;23.014;2023-07-13T11:38:17;8.88;;;3.35;;
42724;SDS011;28369;44.046;23.014;2023-07-13T11:41:04;6.65;;;3.40;;
42724;SDS011;28369;44.046;23.014;2023-07-13T11:43:39;22.17;;;3.83;;
42724;SDS011;28369;44.046;23.014;2023-07-13T11:46:14;6.40;;;2.85;;
42724;SDS011;28369;44.046;23.014;2023-07-13T11:48:47;11.00;;;3.00;;
42724;SDS011;28369;44.046;23.014;2023-07-13T11:51:18;9.05;;;3.10;;
42724;SDS011;28369;44.046;23.014;2023-07-13T11:53:51;12.80;;;3.20;;
42724;SDS011;28369;44.046;23.014;2023-07-13T11:56:18;7.97;;;3.30;;
42724;SDS011;28369;44.046;23.014;2023-07-13T11:58:47;7.35;;;3.22;;
42724;SDS011;28369;44.046;23.014;2023-07-13T12:03:50;9.70;;;3.08;;
42724;SDS011;28369;44.046;23.014;2023-07-13T12:06:28;9.43;;;3.72;;
42724;SDS011;28369;44.046;23.014;2023-07-13T12:08:59;11.60;;;3.10;;
42724;SDS011;28369;44.046;23.014;2023-07-13T12:11:28;8.68;;;3.28;;
42724;SDS011;28369;44.046;23.014;2023-07-13T12:13:54;8.68;;;3.15;;
42724;SDS011;28369;44.046;23.014;2023-07-13T12:16:28;6.28;;;3.42;;
42724;SDS011;28369;44.046;23.014;2023-07-13T12:18:57;12.85;;;3.60;;
42724;SDS011;28369;44.046;23.014;2023-07-13T12:21:31;8.73;;;3.17;;
42724;SDS011;28369;44.046;23.014;2023-07-13T12:23:58;9.43;;;3.55;;
42724;SDS011;28369;44.046;23.014;2023-07-13T12:26:27;11.50;;;3.40;;
42724;SDS011;28369;44.046;23.014;2023-07-13T12:28:54;12.75;;;2.92;;
42724;SDS011;28369;44.046;23.014;2023-07-13T12:36:29;16.85;;;3.67;;
42724;SDS011;28369;44.046;23.014;2023-07-13T12:38:59;9.48;;;3.00;;
42724;SDS011;28369;44.046;23.014;2023-07-13T12:41:29;11.43;;;3.33;;
42724;SDS011;28369;44.046;23.014;2023-07-13T12:58:02;9.85;;;2.90;;
42724;SDS011;28369;44.046;23.014;2023-07-13T13:00:34;6.30;;;3.35;;
42724;SDS011;28369;44.046;23.014;2023-07-13T13:03:49;10.98;;;3.20;;
42724;SDS011;28369;44.046;23.014;2023-07-13T13:06:03;9.90;;;3.00;;
42724;SDS011;28369;44.046;23.014;2023-07-13T13:08:34;7.75;;;2.88;;
42724;SDS011;28369;44.046;23.014;2023-07-13T13:11:01;10.48;;;3.47;;
42724;SDS011;28369;44.046;23.014;2023-07-13T13:13:27;9.80;;;3.17;;
42724;SDS011;28369;44.046;23.014;2023-07-13T13:15:53;6.90;;;3.30;;
42724;SDS011;28369;44.046;23.014;2023-07-13T13:18:22;9.10;;;3.15;;
42724;SDS011;28369;44.046;23.014;2023-07-13T13:20:50;10.25;;;3.40;;
42724;SDS011;28369;44.046;23.014;2023-07-13T13:23:17;11.80;;;3.42;;
42724;SDS011;28369;44.046;23.014;2023-07-13T13:25:46;11.63;;;4.00;;
42724;SDS011;28369;44.046;23.014;2023-07-13T13:28:16;6.90;;;3.25;;
42724;SDS011;28369;44.046;23.014;2023-07-13T13:30:44;11.10;;;3.05;;
42724;SDS011;28369;44.046;23.014;2023-07-13T13:33:12;8.05;;;3.30;;
42724;SDS011;28369;44.046;23.014;2023-07-13T13:35:41;11.27;;;3.15;;
42724;SDS011;28369;44.046;23.014;2023-07-13T13:38:17;10.38;;;3.28;;
42724;SDS011;28369;44.046;23.014;2023-07-13T13:40:45;8.15;;;2.90;;
42724;SDS011;28369;44.046;23.014;2023-07-13T13:45:43;9.65;;;3.10;;
42724;SDS011;28369;44.046;23.014;2023-07-13T13:48:14;7.35;;;2.80;;
42724;SDS011;28369;44.046;23.014;2023-07-13T13:50:42;10.85;;;3.30;;
42724;SDS011;28369;44.046;23.014;2023-07-13T13:53:11;9.48;;;3.15;;
42724;SDS011;28369;44.046;23.014;2023-07-13T13:55:38;8.23;;;3.13;;
42724;SDS011;28369;44.046;23.014;2023-07-13T13:58:06;8.32;;;3.65;;
42724;SDS011;28369;44.046;23.014;2023-07-13T14:00:35;8.90;;;3.03;;
42724;SDS011;28369;44.046;23.014;2023-07-13T14:03:02;9.90;;;3.05;;
42724;SDS011;28369;44.046;23.014;2023-07-13T14:05:28;10.98;;;3.55;;
42724;SDS011;28369;44.046;23.014;2023-07-13T14:07:55;11.23;;;3.40;;
42724;SDS011;28369;44.046;23.014;2023-07-13T14:10:22;7.10;;;3.03;;
42724;SDS011;28369;44.046;23.014;2023-07-13T14:12:48;9.05;;;3.65;;
42724;SDS011;28369;44.046;23.014;2023-07-13T14:17:45;12.43;;;3.60;;
42724;SDS011;28369;44.046;23.014;2023-07-13T14:20:14;10.10;;;3.60;;
42724;SDS011;28369;44.046;23.014;2023-07-13T14:22:40;11.57;;;3.10;;
42724;SDS011;28369;44.046;23.014;2023-07-13T14:25:10;10.10;;;3.33;;
42724;SDS011;28369;44.046;23.014;2023-07-13T14:27:36;6.70;;;3.25;;
42724;SDS011;28369;44.046;23.014;2023-07-13T14:30:02;10.55;;;3.45;;
42724;SDS011;28369;44.046;23.014;2023-07-13T14:32:28;5.93;;;3.28;;
42724;SDS011;28369;44.046;23.014;2023-07-13T14:34:53;8.30;;;3.53;;
42724;SDS011;28369;44.046;23.014;2023-07-13T14:37:19;10.05;;;3.53;;
42724;SDS011;28369;44.046;23.014;2023-07-13T14:39:44;9.48;;;3.38;;
42724;SDS011;28369;44.046;23.014;2023-07-13T14:42:15;7.70;;;3.10;;
42724;SDS011;28369;44.046;23.014;2023-07-13T14:44:40;8.65;;;3.55;;
42724;SDS011;28369;44.046;23.014;2023-07-13T14:47:06;9.82;;;3.58;;
42724;SDS011;28369;44.046;23.014;2023-07-13T14:49:34;10.32;;;3.60;;
42724;SDS011;28369;44.046;23.014;2023-07-13T14:54:38;11.60;;;3.42;;
42724;SDS011;28369;44.046;23.014;2023-07-13T14:57:12;10.52;;;3.65;;
42724;SDS011;28369;44.046;23.014;2023-07-13T14:59:40;6.80;;;3.35;;
42724;SDS011;28369;44.046;23.014;2023-07-13T15:02:13;12.57;;;3.40;;
42724;SDS011;28369;44.046;23.014;2023-07-13T15:04:41;7.95;;;3.15;;
42724;SDS011;28369;44.046;23.014;2023-07-13T15:07:07;5.30;;;3.58;;
42724;SDS011;28369;44.046;23.014;2023-07-13T15:09:35;10.00;;;3.53;;
42724;SDS011;28369;44.046;23.014;2023-07-13T15:12:01;7.80;;;3.80;;
42724;SDS011;28369;44.046;23.014;2023-07-13T15:14:26;8.63;;;3.20;;
42724;SDS011;28369;44.046;23.014;2023-07-13T15:16:53;10.50;;;3.50;;
42724;SDS011;28369;44.046;23.014;2023-07-13T15:19:20;7.38;;;3.45;;
42724;SDS011;28369;44.046;23.014;2023-07-13T15:21:48;7.40;;;3.67;;
42724;SDS011;28369;44.046;23.014;2023-07-13T15:24:15;9.30;;;4.05;;
42724;SDS011;28369;44.046;23.014;2023-07-13T15:26:41;7.03;;;3.90;;
42724;SDS011;28369;44.046;23.014;2023-07-13T15:29:11;9.27;;;4.38;;